createdAt,value
2018-07-06T00:02:00.829Z,5.40
2018-07-06T00:04:42.219Z,5.20
2018-07-06T00:07:23.436Z,5.50
2018-07-06T00:10:04.997Z,5.20
2018-07-06T00:12:46.218Z,5.53
2018-07-06T00:15:27.247Z,5.13
2018-07-06T00:18:08.790Z,5.30
2018-07-06T00:20:49.350Z,5.10
2018-07-06T00:23:30.685Z,4.83
2018-07-06T00:26:11.967Z,5.00
2018-07-06T00:28:53.437Z,5.07
2018-07-06T00:31:34.839Z,5.30
2018-07-06T00:34:16.228Z,4.97
2018-07-06T00:36:58.436Z,5.03
2018-07-06T00:39:39.666Z,4.80
2018-07-06T00:42:20.601Z,4.40
2018-07-06T00:45:02.013Z,5.00
2018-07-06T00:47:43.557Z,5.15
2018-07-06T00:50:24.781Z,4.73
2018-07-06T00:53:05.920Z,5.07
2018-07-06T00:55:47.306Z,5.20
2018-07-06T00:58:28.693Z,4.87
2018-07-06T01:01:10.083Z,4.80
2018-07-06T01:03:51.725Z,4.67
2018-07-06T01:06:33.258Z,5.10
2018-07-06T01:09:14.237Z,4.55
2018-07-06T01:11:55.466Z,4.73
2018-07-06T01:14:36.946Z,5.07
2018-07-06T01:17:17.747Z,5.20
2018-07-06T01:19:58.952Z,5.17
2018-07-06T01:22:40.205Z,5.25
2018-07-06T01:25:21.043Z,5.43
2018-07-06T01:28:02.127Z,5.33
2018-07-06T01:30:43.663Z,5.47
2018-07-06T01:33:24.647Z,6.50
2018-07-06T01:36:05.874Z,6.03
2018-07-06T01:38:47.425Z,6.10
2018-07-06T01:41:28.295Z,6.30
2018-07-06T01:44:09.781Z,6.15
2018-07-06T01:46:51.139Z,6.57
2018-07-06T01:49:32.488Z,6.07
2018-07-06T01:52:13.933Z,6.55
2018-07-06T01:54:55.344Z,7.20
2018-07-06T01:57:36.634Z,6.87
2018-07-06T02:00:17.681Z,7.17
2018-07-06T02:02:58.653Z,7.20
2018-07-06T02:05:39.902Z,7.67
2018-07-06T02:08:20.994Z,7.20
2018-07-06T02:11:02.228Z,7.77
2018-07-06T02:13:43.609Z,7.12
2018-07-06T02:16:24.756Z,7.40
2018-07-06T02:19:06.142Z,7.77
2018-07-06T02:21:47.116Z,7.70
2018-07-06T02:24:28.505Z,7.90
2018-07-06T02:27:09.371Z,7.50
2018-07-06T02:29:50.341Z,6.67
2018-07-06T02:32:32.498Z,6.87
2018-07-06T02:35:13.904Z,6.90
2018-07-06T02:37:55.405Z,6.87
2018-07-06T02:40:36.400Z,7.27
2018-07-06T02:43:17.637Z,7.93
2018-07-06T02:45:59.464Z,7.17
2018-07-06T02:48:40.413Z,8.10
2018-07-06T02:51:21.316Z,7.80
2018-07-06T02:54:02.922Z,7.60
2018-07-06T02:56:43.903Z,8.13
2018-07-06T02:59:24.865Z,7.37
2018-07-06T03:02:06.509Z,7.87
2018-07-06T03:04:47.876Z,7.83
2018-07-06T03:07:29.430Z,7.17
2018-07-06T03:10:10.660Z,6.95
2018-07-06T03:12:51.551Z,7.10
2018-07-06T03:15:32.185Z,6.90
2018-07-06T03:18:13.592Z,6.37
2018-07-06T03:20:54.678Z,5.43
2018-07-06T03:23:35.685Z,5.53
2018-07-06T03:26:17.071Z,5.67
2018-07-06T03:28:57.874Z,3.87
2018-07-06T03:31:38.583Z,4.37
2018-07-06T03:34:19.491Z,3.80
2018-07-06T03:36:59.990Z,3.37
2018-07-06T03:39:41.082Z,3.63
2018-07-06T03:42:21.901Z,3.20
2018-07-06T03:45:03.493Z,3.00
2018-07-06T03:47:44.887Z,3.10
2018-07-06T03:50:25.737Z,3.40
2018-07-06T03:53:07.121Z,3.42
2018-07-06T03:55:48.521Z,4.20
2018-07-06T03:58:29.913Z,3.80
2018-07-06T04:01:11.301Z,3.87
2018-07-06T04:03:52.732Z,3.67
2018-07-06T04:06:34.018Z,3.07
2018-07-06T04:09:15.586Z,3.23
2018-07-06T04:11:56.765Z,3.00
2018-07-06T04:14:38.197Z,2.70
2018-07-06T04:17:19.668Z,2.70
2018-07-06T04:20:00.941Z,2.53
2018-07-06T04:22:42.464Z,2.50
2018-07-06T04:25:23.860Z,2.80
2018-07-06T04:28:04.434Z,2.30
2018-07-06T04:30:45.740Z,2.30
2018-07-06T04:33:26.788Z,2.60
2018-07-06T04:36:08.480Z,2.30
2018-07-06T04:38:49.557Z,3.02
2018-07-06T04:41:30.796Z,2.90
2018-07-06T04:44:11.901Z,2.30
2018-07-06T04:46:53.130Z,2.80
2018-07-06T04:49:34.163Z,2.67
2018-07-06T04:52:15.459Z,3.17
2018-07-06T04:54:56.322Z,2.60
2018-07-06T04:57:37.811Z,2.30
2018-07-06T05:00:18.723Z,2.47
2018-07-06T05:02:59.997Z,2.70
2018-07-06T05:05:40.510Z,2.30
2018-07-06T05:08:22.124Z,2.80
2018-07-06T05:11:03.516Z,2.60
2018-07-06T05:13:44.696Z,2.57
2018-07-06T05:16:26.101Z,2.60
2018-07-06T05:19:07.136Z,2.57
2018-07-06T05:21:48.144Z,2.47
2018-07-06T05:24:29.508Z,2.30
2018-07-06T05:27:10.634Z,2.40
2018-07-06T05:29:51.853Z,2.90
2018-07-06T05:32:33.360Z,2.40
2018-07-06T05:35:14.124Z,2.57
2018-07-06T05:37:54.807Z,3.00
2018-07-06T05:40:36.126Z,2.63
2018-07-06T05:43:16.732Z,2.75
2018-07-06T05:45:58.125Z,2.70
2018-07-06T05:48:39.059Z,2.60
2018-07-06T05:51:20.603Z,2.65
2018-07-06T05:54:01.583Z,2.70
2018-07-06T05:56:42.951Z,2.83
2018-07-06T05:59:23.686Z,2.93
2018-07-06T06:02:05.265Z,2.70
2018-07-06T06:04:46.684Z,3.17
2018-07-06T06:07:21.138Z,2.77
2018-07-06T06:09:51.804Z,2.90
2018-07-06T06:12:23.780Z,2.87
2018-07-06T06:14:55.092Z,2.40
2018-07-06T06:17:26.024Z,2.50
2018-07-06T06:19:56.705Z,2.20
2018-07-06T06:22:27.081Z,2.43
2018-07-06T06:24:57.660Z,2.37
2018-07-06T06:27:28.237Z,2.87
2018-07-06T06:29:58.857Z,2.22
2018-07-06T06:32:29.637Z,2.37
2018-07-06T06:35:01.537Z,2.03
2018-07-06T06:37:32.340Z,2.20
2018-07-06T06:40:03.168Z,2.27
2018-07-06T06:42:33.779Z,2.20
2018-07-06T06:45:04.277Z,2.33
2018-07-06T06:47:35.328Z,2.50
2018-07-06T06:50:05.597Z,2.73
2018-07-06T06:52:36.417Z,2.20
2018-07-06T06:55:07.065Z,2.20
2018-07-06T06:57:37.935Z,2.20
2018-07-06T07:00:08.947Z,2.17
2018-07-06T07:02:39.269Z,2.20
2018-07-06T07:05:09.814Z,2.02
2018-07-06T07:07:40.433Z,2.33
2018-07-06T07:10:11.341Z,2.60
2018-07-06T07:12:42.080Z,2.20
2018-07-06T07:15:12.876Z,2.30
2018-07-06T07:17:44.371Z,2.70
2018-07-06T07:20:15.125Z,2.37
2018-07-06T07:22:45.853Z,2.30
2018-07-06T07:25:16.527Z,2.33
2018-07-06T07:27:47.281Z,2.50
2018-07-06T07:30:18.171Z,2.20
2018-07-06T07:32:49.068Z,2.17
2018-07-06T07:35:19.603Z,2.37
2018-07-06T07:37:50.829Z,2.50
2018-07-06T07:40:21.074Z,2.80
2018-07-06T07:42:52.189Z,2.97
2018-07-06T07:45:22.910Z,2.97
2018-07-06T07:47:53.462Z,3.20
2018-07-06T07:50:24.025Z,3.43
2018-07-06T07:53:04.523Z,2.80
2018-07-06T07:55:34.879Z,2.33
2018-07-06T07:58:04.901Z,2.23
2018-07-06T08:00:35.638Z,2.52
2018-07-06T08:03:07.026Z,3.00
2018-07-06T08:05:36.904Z,2.90
2018-07-06T08:08:07.822Z,2.43
2018-07-06T08:10:37.696Z,2.70
2018-07-06T08:13:08.065Z,2.80
2018-07-06T08:15:38.377Z,2.17
2018-07-06T08:18:09.007Z,2.50
2018-07-06T08:20:39.846Z,2.70
2018-07-06T08:23:10.188Z,3.33
2018-07-06T08:25:40.748Z,3.00
2018-07-06T08:28:11.691Z,3.10
2018-07-06T08:30:42.494Z,2.60
2018-07-06T08:33:13.396Z,3.40
2018-07-06T08:35:54.583Z,3.90
2018-07-06T08:38:25.191Z,2.80
2018-07-06T08:40:55.771Z,3.20
2018-07-06T08:43:26.600Z,3.10
2018-07-06T08:45:57.254Z,3.50
2018-07-06T08:48:27.420Z,2.90
2018-07-06T08:50:58.315Z,3.10
2018-07-06T08:53:29.051Z,3.33
2018-07-06T08:55:59.719Z,2.90
2018-07-06T08:58:30.201Z,2.87
2018-07-06T09:01:01.330Z,2.67
2018-07-06T09:03:32.039Z,2.98
2018-07-06T09:06:03.105Z,2.70
2018-07-06T09:08:33.668Z,3.30
2018-07-06T09:11:04.060Z,3.10
2018-07-06T09:13:34.642Z,2.60
2018-07-06T09:16:05.266Z,2.63
2018-07-06T09:18:35.744Z,3.00
2018-07-06T09:21:06.349Z,2.57
2018-07-06T09:23:37.126Z,2.30
2018-07-06T09:26:08.096Z,2.03
2018-07-06T09:28:38.751Z,2.58
2018-07-06T09:31:09.694Z,2.85
2018-07-06T09:33:40.106Z,2.83
2018-07-06T09:36:10.473Z,3.90
2018-07-06T09:38:41.114Z,4.65
2018-07-06T09:41:11.507Z,4.80
2018-07-06T09:43:42.186Z,4.95
2018-07-06T09:46:12.845Z,5.60
2018-07-06T09:48:43.514Z,6.33
2018-07-06T09:51:14.353Z,6.33
2018-07-06T09:53:45.109Z,7.00
2018-07-06T09:56:15.843Z,7.70
2018-07-06T09:58:46.585Z,4.40
2018-07-06T10:01:16.961Z,3.63
2018-07-06T10:03:47.620Z,3.87
2018-07-06T10:06:18.176Z,3.13
2018-07-06T10:08:49.234Z,3.60
2018-07-06T10:11:20.368Z,3.70
2018-07-06T10:13:50.816Z,2.97
2018-07-06T10:16:21.557Z,3.10
2018-07-06T10:18:52.481Z,3.33
2018-07-06T10:21:24.233Z,3.07
2018-07-06T10:23:54.873Z,2.72
2018-07-06T10:26:24.942Z,2.93
2018-07-06T10:29:36.588Z,2.93
2018-07-06T10:32:22.023Z,2.50
2018-07-06T10:34:52.701Z,2.87
2018-07-06T10:37:23.357Z,2.63
2018-07-06T10:39:54.315Z,3.03
2018-07-06T10:42:24.535Z,2.87
2018-07-06T10:44:55.284Z,3.00
2018-07-06T10:47:26.365Z,2.30
2018-07-06T10:49:56.715Z,3.23
2018-07-06T10:52:27.226Z,3.00
2018-07-06T10:54:57.803Z,3.00
2018-07-06T10:57:28.444Z,2.73
2018-07-06T10:59:58.822Z,3.00
2018-07-06T11:02:29.849Z,2.97
2018-07-06T11:05:00.630Z,2.98
2018-07-06T11:07:31.262Z,2.60
2018-07-06T11:10:01.352Z,2.53
2018-07-06T11:12:31.295Z,2.60
2018-07-06T11:15:02.302Z,3.00
2018-07-06T11:17:32.730Z,3.17
2018-07-06T11:20:03.404Z,2.90
2018-07-06T11:22:34.070Z,3.50
2018-07-06T11:25:04.616Z,3.43
2018-07-06T11:27:35.996Z,3.83
2018-07-06T11:30:06.402Z,3.87
2018-07-06T11:32:36.995Z,4.10
2018-07-06T11:35:07.709Z,4.80
2018-07-06T11:37:38.473Z,4.27
2018-07-06T11:40:09.361Z,4.70
2018-07-06T11:42:40.096Z,4.50
2018-07-06T11:45:10.756Z,4.00
2018-07-06T11:47:41.100Z,4.30
2018-07-06T11:50:11.512Z,4.07
2018-07-06T11:52:42.474Z,4.70
2018-07-06T11:55:12.952Z,4.70
2018-07-06T11:57:43.580Z,4.45
2018-07-06T12:00:14.320Z,6.33
2018-07-06T12:02:44.921Z,7.10
2018-07-06T12:05:15.873Z,7.57
2018-07-06T12:07:46.600Z,5.07
2018-07-06T12:10:16.960Z,4.50
2018-07-06T12:12:47.626Z,4.27
2018-07-06T12:15:18.281Z,4.07
2018-07-06T12:17:48.956Z,5.00
2018-07-06T12:20:19.662Z,4.03
2018-07-06T12:22:50.606Z,4.70
2018-07-06T12:25:20.919Z,4.83
2018-07-06T12:27:51.309Z,5.20
2018-07-06T12:30:22.005Z,6.30
2018-07-06T12:32:52.752Z,7.27
2018-07-06T12:35:23.408Z,6.90
2018-07-06T12:37:53.775Z,10.40
2018-07-06T12:40:24.146Z,7.60
2018-07-06T12:42:54.840Z,8.40
2018-07-06T12:45:25.334Z,8.07
2018-07-06T12:47:55.651Z,7.27
2018-07-06T12:50:26.289Z,7.00
2018-07-06T12:52:57.362Z,6.90
2018-07-06T12:55:28.117Z,7.12
2018-07-06T12:57:58.710Z,7.70
2018-07-06T13:00:29.502Z,8.33
2018-07-06T13:03:00.195Z,7.30
2018-07-06T13:05:30.950Z,8.03
2018-07-06T13:08:01.619Z,8.60
2018-07-06T13:10:31.759Z,9.00
2018-07-06T13:13:02.482Z,9.13
2018-07-06T13:15:33.453Z,10.00
2018-07-06T13:18:03.505Z,11.18
2018-07-06T13:20:34.125Z,10.83
2018-07-06T13:23:05.188Z,11.17
2018-07-06T13:25:36.090Z,10.60
2018-07-06T13:28:06.416Z,10.90
2018-07-06T13:30:36.823Z,10.35
2018-07-06T13:33:07.360Z,10.67
2018-07-06T13:35:37.837Z,11.85
2018-07-06T13:38:08.549Z,11.05
2018-07-06T13:40:38.936Z,12.07
2018-07-06T13:43:09.921Z,12.53
2018-07-06T13:45:40.349Z,12.70
2018-07-06T13:48:10.600Z,12.07
2018-07-06T13:50:41.529Z,12.05
2018-07-06T13:53:12.263Z,12.93
2018-07-06T13:55:42.937Z,13.30
2018-07-06T13:58:13.543Z,13.65
2018-07-06T14:00:43.975Z,13.60
2018-07-06T14:03:13.932Z,13.83
2018-07-06T14:05:44.454Z,14.43
2018-07-06T14:08:15.073Z,13.23
2018-07-06T14:10:45.736Z,13.93
2018-07-06T14:13:16.305Z,13.60
2018-07-06T14:15:47.018Z,15.80
2018-07-06T14:18:17.899Z,14.93
2018-07-06T14:20:47.885Z,13.13
2018-07-06T14:23:18.515Z,14.60
2018-07-06T14:25:48.553Z,14.13
2018-07-06T14:28:19.435Z,13.90
2018-07-06T14:30:50.201Z,15.10
2018-07-06T14:33:20.945Z,13.90
2018-07-06T14:35:51.275Z,15.37
2018-07-06T14:38:21.606Z,14.93
2018-07-06T14:40:52.349Z,15.90
2018-07-06T14:43:23.062Z,14.53
2018-07-06T14:45:53.516Z,16.43
2018-07-06T14:48:24.146Z,16.10
2018-07-06T14:50:54.600Z,13.73
2018-07-06T14:53:25.104Z,11.80
2018-07-06T14:55:56.099Z,12.07
2018-07-06T14:58:26.292Z,13.60
2018-07-06T15:00:56.690Z,11.37
2018-07-06T15:03:27.272Z,11.80
2018-07-06T15:05:58.086Z,11.80
2018-07-06T15:08:28.775Z,11.00
2018-07-06T15:10:59.522Z,11.10
2018-07-06T15:13:30.147Z,11.40
2018-07-06T15:16:02.067Z,11.33
2018-07-06T15:18:32.638Z,11.15
2018-07-06T15:21:03.715Z,10.57
2018-07-06T15:23:34.064Z,10.30
2018-07-06T15:26:04.530Z,9.40
2018-07-06T15:28:35.225Z,9.20
2018-07-06T15:31:05.927Z,10.00
2018-07-06T15:33:36.513Z,9.17
2018-07-06T15:36:07.423Z,9.60
2018-07-06T15:38:37.352Z,9.63
2018-07-06T15:41:08.321Z,9.37
2018-07-06T15:43:38.780Z,9.38
2018-07-06T15:46:09.842Z,9.30
2018-07-06T15:48:40.379Z,8.83
2018-07-06T15:51:10.997Z,9.63
2018-07-06T15:53:41.505Z,10.23
2018-07-06T15:56:12.212Z,10.47
2018-07-06T15:58:43.050Z,10.50
2018-07-06T16:01:13.483Z,11.05
2018-07-06T16:03:44.107Z,11.03
2018-07-06T16:06:14.839Z,10.83
2018-07-06T16:08:45.976Z,10.60
2018-07-06T16:11:16.729Z,11.40
2018-07-06T16:13:47.392Z,11.33
2018-07-06T16:16:18.754Z,10.80
2018-07-06T16:18:49.365Z,10.97
2018-07-06T16:21:19.790Z,10.90
2018-07-06T16:23:50.255Z,12.13
2018-07-06T16:26:21.335Z,11.70
2018-07-06T16:28:55.348Z,11.50
2018-07-06T16:31:25.950Z,12.47
2018-07-06T16:33:57.149Z,11.37
2018-07-06T16:36:27.150Z,11.43
2018-07-06T16:38:58.030Z,12.10
2018-07-06T16:41:28.842Z,11.30
2018-07-06T16:43:59.600Z,12.43
2018-07-06T16:46:30.034Z,11.68
2018-07-06T16:49:01.092Z,12.37
2018-07-06T16:51:31.509Z,11.38
2018-07-06T16:54:01.313Z,11.88
2018-07-06T16:56:31.795Z,12.30
2018-07-06T16:59:02.688Z,11.80
2018-07-06T17:01:33.240Z,12.47
2018-07-06T17:04:03.133Z,12.37
2018-07-06T17:06:34.131Z,13.05
2018-07-06T17:09:05.911Z,13.33
2018-07-06T17:11:36.838Z,12.43
2018-07-06T17:14:07.539Z,13.30
2018-07-06T17:16:37.993Z,13.13
2018-07-06T17:19:08.614Z,13.83
2018-07-06T17:21:39.546Z,13.93
2018-07-06T17:24:10.679Z,13.50
2018-07-06T17:26:41.014Z,13.60
2018-07-06T17:29:11.744Z,13.93
2018-07-06T17:31:42.288Z,14.00
2018-07-06T17:34:13.009Z,13.00
2018-07-06T17:36:43.838Z,13.50
2018-07-06T17:39:14.235Z,13.63
2018-07-06T17:41:45.045Z,13.75
2018-07-06T17:44:16.244Z,13.30
2018-07-06T17:46:46.823Z,12.50
2018-07-06T17:49:17.174Z,13.00
2018-07-06T17:51:47.760Z,13.50
2018-07-06T17:54:18.460Z,13.50
2018-07-06T17:56:48.907Z,13.00
2018-07-06T17:59:20.771Z,12.77
2018-07-06T18:01:51.507Z,11.70
2018-07-06T18:04:22.308Z,11.77
2018-07-06T18:06:52.810Z,11.10
2018-07-06T18:09:23.658Z,10.43
2018-07-06T18:11:54.292Z,9.87
2018-07-06T18:14:25.761Z,10.00
2018-07-06T18:16:56.526Z,9.37
2018-07-06T18:19:28.692Z,9.03
2018-07-06T18:21:59.267Z,8.37
2018-07-06T18:24:30.232Z,7.77
2018-07-06T18:27:00.665Z,8.07
2018-07-06T18:29:31.492Z,8.00
2018-07-06T18:32:02.397Z,8.10
2018-07-06T18:34:33.127Z,7.28
2018-07-06T18:37:03.837Z,7.58
2018-07-06T18:39:34.567Z,7.35
2018-07-06T18:42:04.786Z,7.80
2018-07-06T18:44:34.726Z,7.42
2018-07-06T18:47:05.745Z,7.70
2018-07-06T18:49:36.130Z,7.33
2018-07-06T18:52:06.810Z,6.90
2018-07-06T18:54:38.002Z,7.33
2018-07-06T18:57:08.919Z,8.40
2018-07-06T18:59:39.483Z,8.30
2018-07-06T19:04:55.223Z,8.77
2018-07-06T19:07:25.533Z,8.43
2018-07-06T19:09:56.620Z,10.00
2018-07-06T19:12:29.776Z,9.30
2018-07-06T19:15:00.181Z,9.70
2018-07-06T19:17:30.961Z,9.57
2018-07-06T19:20:02.338Z,8.97
2018-07-06T19:22:33.296Z,9.60
2018-07-06T19:25:04.190Z,9.58
2018-07-06T19:27:34.938Z,10.80
2018-07-06T19:30:05.683Z,10.32
2018-07-06T19:32:36.495Z,10.70
2018-07-06T19:35:07.172Z,11.40
2018-07-06T19:37:37.675Z,11.43
2018-07-06T19:40:08.170Z,10.80
2018-07-06T19:42:38.972Z,10.33
2018-07-06T19:45:09.416Z,10.13
2018-07-06T19:47:39.591Z,10.65
2018-07-06T19:50:10.312Z,10.53
2018-07-06T19:52:41.031Z,10.45
2018-07-06T19:55:11.846Z,10.75
2018-07-06T19:57:42.612Z,10.55
2018-07-06T20:00:13.273Z,11.50
2018-07-06T20:02:45.068Z,10.90
2018-07-06T20:05:15.810Z,10.55
2018-07-06T20:07:46.923Z,12.07
2018-07-06T20:10:17.155Z,12.17
2018-07-06T20:12:47.954Z,12.37
2018-07-06T20:15:18.680Z,12.40
2018-07-06T20:17:49.438Z,11.63
2018-07-06T20:20:19.990Z,11.97
2018-07-06T20:22:50.459Z,12.50
2018-07-06T20:25:21.592Z,11.40
2018-07-06T20:27:52.334Z,10.20
2018-07-06T20:30:23.089Z,10.27
2018-07-06T20:32:53.749Z,9.00
2018-07-06T20:35:23.992Z,6.93
2018-07-06T20:37:54.814Z,6.70
2018-07-06T20:40:25.193Z,5.73
2018-07-06T20:42:55.478Z,4.30
2018-07-06T20:45:26.545Z,3.00
2018-07-06T20:47:57.293Z,2.70
2018-07-06T20:50:28.236Z,2.45
2018-07-06T20:52:58.831Z,2.47
2018-07-06T20:55:30.605Z,2.27
2018-07-06T20:58:01.455Z,2.43
2018-07-06T21:00:32.225Z,2.40
2018-07-06T21:03:02.837Z,2.30
2018-07-06T21:05:33.348Z,2.00
2018-07-06T21:08:03.817Z,2.10
2018-07-06T21:10:34.808Z,3.50
2018-07-06T21:13:05.678Z,2.43
2018-07-06T21:15:36.620Z,2.25
2018-07-06T21:18:07.779Z,2.57
2018-07-06T21:20:38.633Z,2.00
2018-07-06T21:23:09.424Z,2.98
2018-07-06T21:25:40.483Z,2.77
2018-07-06T21:28:11.566Z,2.72
2018-07-06T21:30:42.185Z,2.70
2018-07-06T21:33:12.157Z,2.90
2018-07-06T21:35:42.625Z,2.25
2018-07-06T21:38:13.634Z,1.90
2018-07-06T21:40:44.571Z,2.43
2018-07-06T21:43:30.041Z,2.02
2018-07-06T21:46:01.081Z,2.40
2018-07-06T21:48:31.040Z,2.80
2018-07-06T21:51:01.785Z,2.70
2018-07-06T21:53:33.282Z,2.73
2018-07-06T21:56:03.824Z,2.50
2018-07-06T21:58:34.845Z,2.53
2018-07-06T22:01:06.163Z,2.85
2018-07-06T22:03:36.976Z,3.17
2018-07-06T22:06:07.654Z,3.00
2018-07-06T22:08:38.219Z,2.77
2018-07-06T22:11:08.730Z,2.63
2018-07-06T22:13:39.285Z,3.53
2018-07-06T22:16:09.907Z,3.37
2018-07-06T22:18:40.269Z,3.67
2018-07-06T22:21:10.522Z,4.07
2018-07-06T22:23:40.413Z,3.92
2018-07-06T22:26:10.784Z,4.62
2018-07-06T22:28:41.446Z,4.83
2018-07-06T22:31:12.298Z,4.63
2018-07-06T22:33:42.996Z,5.10
2018-07-06T22:36:13.762Z,5.58
2018-07-06T22:38:44.333Z,5.92
2018-07-06T22:41:14.831Z,7.28
2018-07-06T22:43:45.845Z,6.77
2018-07-06T22:46:16.392Z,7.95
2018-07-06T22:48:47.281Z,7.78
2018-07-06T22:51:18.150Z,8.43
2018-07-06T22:53:48.077Z,8.30
2018-07-06T22:56:18.390Z,9.33
2018-07-06T22:58:48.963Z,10.40
2018-07-06T23:01:21.016Z,10.20
2018-07-06T23:03:51.438Z,9.80
2018-07-06T23:06:22.193Z,10.97
2018-07-06T23:08:52.819Z,10.50
2018-07-06T23:11:23.509Z,11.22
2018-07-06T23:13:54.296Z,11.37
2018-07-06T23:16:24.903Z,12.03
2018-07-06T23:18:55.535Z,11.90
2018-07-06T23:21:26.402Z,11.73
2018-07-06T23:23:57.333Z,11.13
2018-07-06T23:26:27.929Z,11.83
2018-07-06T23:28:58.568Z,11.67
2018-07-06T23:31:29.244Z,11.83
2018-07-06T23:34:00.313Z,12.87
2018-07-06T23:36:30.607Z,12.00
2018-07-06T23:39:01.393Z,12.30
2018-07-06T23:41:31.968Z,12.63
2018-07-06T23:44:02.339Z,11.85
2018-07-06T23:46:32.948Z,12.73
2018-07-06T23:49:03.473Z,11.90
2018-07-06T23:51:34.038Z,13.00
2018-07-06T23:54:04.660Z,12.82
2018-07-06T23:56:35.528Z,12.98
2018-07-06T23:59:06.012Z,11.95
